Westlake, Texas
Current Conditions -  °F | °C
As of 7:53 PM on Sunday 25 Jan 2015 (Local Time) from KAFW Reporting Station
Clear Clear  
Wind Chill: 50°   Ceiling: Unl
Heat Index: 50°   Visibility: 10mi
Dew Point: 25°   Wind: 6mph
Humidity: 38%   Direction: 300°WNW
Pressure: 30.13"   Gusts: NA
Location:  32.996°N, 97.2275°W
Report Text: KAFW 260153Z 30005KT 10SM CLR 10/M04 A3013 RMK AO2 SLP206 T01001039
Loading
Personal Weather Stations






























Interactive Weather Map New forecast layout! Learn more

10-Day Weather Forecast

Advertisements
Track Severe Weather on mobile